Aviation Digital Data Service (ADDS)

Output produced by METARs form (1106 UTC 26 November 2014)
found at http://aviationweather.gov/adds/metars/
 
KDAG 261050Z AUTO 00000KT 10SM CLR 05/M17 A3037 RMK AO2 SLP277 T00501172
KDAG 260520Z 2606/2706 27008KT P6SM SKC 
     FM262000 06006KT P6SM FEW250 
     FM270400 27006KT P6SM FEW250
       
KEDW 261058Z AUTO 20002KT 10SM CLR M01/M18 A3037 RMK AO2 SLP284 T10061179
TAF KEDW 2610/2716 VRB06KT 9999 SKC QNH3037INS TX19/2623Z TNM03/2713Z
       
KVCV 261055Z AUTO 00000KT 10SM 04/M16 A3038 RMK AO2
KONT 261053Z 00000KT 10SM CLR 11/M03 A3025 RMK AO2 SLP236 T01061033
KONT 260536Z 2606/2712 VRB04KT P6SM SKC 
     FM261100 VRB04KT P6SM SKC WS020/03020KT 
     FM262100 VRB04KT P6SM SKC
       
KSNA 261053Z AUTO 00000KT 10SM CLR 13/00 A3022 RMK AO2 SLP232 T01280000 TSNO $
KSNA 260536Z 2606/2706 VRB04KT P6SM SKC 
     FM260900 VRB04KT P6SM SKC WS015/05020KT 
     FM261800 VRB04KT P6SM SKC
       
KSAN 261051Z 00000KT 10SM CLR 13/M03 A3023 RMK AO2 SLP237 T01331033
KSAN 260857Z 2609/2712 VRB04KT P6SM SKC 
     FM262100 31008KT P6SM SKC 
     FM270100 VRB04KT P6SM SKC
       
KNID 261056Z AUTO 00000KT 10SM CLR 02/M15 A3037 RMK AO2 SLP289 T00171150 $
TAF KNID 2523/2623 VRB05KT 9999 FEW280 QNH3034INS 
     BECMG 2523/2601 21007KT 9999 SKC QNH3032INS WND VRB05KT AFT 2610 
     BECMG 2621/2623 16006KT 9999 FEW280 QNH3028INS TM01/2614Z T20/2622Z LAST NO AMD AFT 2606/ NEXT 2615
       
KNXP 261056Z AUTO 32006KT 10SM CLR 07/M16 A3042 RMK AO2 SLP280 T00721156
TAF KNXP 2609/2709 VRB05KT 9999 FEW200 QNH3030INS AUTOMATED SENSOR METWATCH 2609 TIL 2616 T07/2614Z T24/2622Z
       
KPSP 261053Z AUTO 00000KT 10SM CLR 10/M03 A3029 RMK AO2 SLP258 T01001028 TSNO
KPSP 260536Z 2606/2706 VRB05KT P6SM SKC
       
KLAX 261053Z 11004KT 10SM CLR 13/M01 A3023 RMK AO2 SLP236 T01281011 $
KLAX 260850Z 2609/2712 VRB03KT P6SM SKC 
     FM262000 27010KT P6SM SKC 
     FM270400 VRB03KT P6SM SKC
       
KCNO 261053Z 00000KT 8SM CLR 06/00 A3027 RMK AO2 SLP247 T00560000 $
KSMO 261051Z 03004KT 10SM CLR 12/01 A3023 RMK AO2 SLP236 T01220006
KLGB 261053Z 00000KT 10SM CLR 12/00 A3023 RMK AO2 SLP236 T01170000
KLGB 260525Z 2606/2706 VRB03KT P6SM SKC 
     FM262000 18006KT P6SM SKC 
     FM262300 30008KT P6SM SKC 
     FM270400 VRB03KT P6SM SKC
       
KVNY 261051Z 00000KT 10SM CLR 10/M02 A3025 RMK AO2 SLP237 T01001017
KVNY 260525Z 2606/2706 VRB03KT P6SM SKC 
     FM261800 35006KT P6SM SKC 
     FM270400 VRB03KT P6SM SKC
       
KBUR 261053Z AUTO 00000KT 10SM CLR 11/M04 A3024 RMK AO2 SLP230 T01061039 TSNO
KBUR 260525Z 2606/2706 VRB03KT P6SM SKC 
     FM262100 16005KT P6SM SKC 
     FM270400 VRB03KT P6SM SKC
       
KBFL 261054Z AUTO 00000KT 5SM HZ CLR 08/03 A3034 RMK AO2 SLP271 T00830033 $
KBFL 260524Z 2606/2706 VRB03KT 6SM HZ SKC 
     FM260900 10003KT 4SM BR SKC 
     FM261500 00000KT 2SM BR SKC 
     FM262000 VRB03KT 4SM HZ SKC
       
KPMD 261053Z AUTO 21004KT 10SM CLR 03/M11 A3038 RMK AO2 SLP285 T00331106
KPMD 260525Z 2606/2706 VRB05KT P6SM SKC
       
KOXR 261051Z AUTO 04007KT 10SM CLR 15/M07 A3023 RMK AO2 SLP234 T01501067
KOXR 260525Z 2606/2706 VRB03KT P6SM SKC 
     FM260900 03008KT P6SM SKC 
     FM262100 27008KT P6SM SKC 
     FM270400 VRB03KT P6SM SKC
       
KWJF 261056Z 29004KT 10SM CLR M01/M13 A3039 RMK AO2 SLP297 T10061133
KWJF 260525Z 2606/2706 VRB05KT P6SM SKC
       
KCMA 261055Z 00000KT 10SM CLR 09/M01 A3023 RMK AO2 SLP244 T00941011
KFAT 261053Z 00000KT 4SM BR CLR 07/05 A3034 RMK AO2 SLP274 T00670050
KFAT 260524Z 2606/2706 VRB03KT 5SM HZ SKC 
     FM261200 00000KT 2SM BR SKC 
     FM261400 12002KT 1SM BR SKC 
     FM261700 13003KT 3SM HZ SKC 
     FM262000 00000KT 5SM HZ SKC
       
KEED 261056Z AUTO 24009KT 10SM CLR 09/M11 A3031 RMK AO2 SLP252 T00891106
KEED 260520Z 2606/2706 24006KT P6SM SKC 
     FM261600 36012KT P6SM FEW250 
     FM270300 32007KT P6SM FEW250
       
KLSV 261058Z AUTO 06004KT 10SM CLR 04/M12 A3038 RMK AO2 SLP287 T00401120
TAF KLSV 2609/2715 VRB06KT 9999 SKC QNH3026INS TX17/2623Z TNM01/2711Z
       
KLAS 261056Z 20006KT 10SM CLR 07/M11 A3033 RMK AO2 SLP267 T00721106
KLAS 260845Z 2609/2706 20007KT P6SM SKC 
     FM261600 VRB04KT P6SM FEW250 
     FM270200 22007KT P6SM FEW250
       
KHII 261055Z AUTO 00000KT 10SM CLR 10/M10 A3031 RMK AO2
KIFP 261055Z AUTO 01016KT 10SM CLR 15/M09 A3031 RMK AO2